createdAt,value
2022-10-18T00:00:06.034Z,22.84
2022-10-18T00:02:32.537Z,22.83
2022-10-18T00:04:58.995Z,22.83
2022-10-18T00:07:25.411Z,22.82
2022-10-18T00:09:51.875Z,22.82
2022-10-18T00:12:18.247Z,22.82
2022-10-18T00:14:44.643Z,22.82
2022-10-18T00:17:11.092Z,22.82
2022-10-18T00:19:37.496Z,22.82
2022-10-18T00:22:03.907Z,22.81
2022-10-18T00:24:30.327Z,22.82
2022-10-18T00:26:56.711Z,22.82
2022-10-18T00:29:23.144Z,22.83
2022-10-18T00:31:49.559Z,22.82
2022-10-18T00:34:16.451Z,22.81
2022-10-18T00:36:43.617Z,22.82
2022-10-18T00:39:14.419Z,22.82
2022-10-18T00:41:40.905Z,22.83
2022-10-18T00:44:27.280Z,22.81
2022-10-18T00:46:58.667Z,22.83
2022-10-18T00:49:25.016Z,22.82
2022-10-18T00:51:58.351Z,22.81
2022-10-18T00:54:25.224Z,22.80
2022-10-18T00:56:51.796Z,22.79
2022-10-18T00:59:18.627Z,22.78
2022-10-18T01:01:45.511Z,22.77
2022-10-18T01:04:13.700Z,22.78
2022-10-18T01:06:49.387Z,22.78
2022-10-18T01:09:24.828Z,22.77
2022-10-18T01:11:58.560Z,22.76
2022-10-18T01:14:33.920Z,22.75
2022-10-18T01:17:19.192Z,22.75
2022-10-18T01:20:04.488Z,22.73
2022-10-18T01:22:33.963Z,22.72
2022-10-18T01:25:00.380Z,22.70
2022-10-18T01:27:33.264Z,22.69
2022-10-18T01:30:18.706Z,22.68
2022-10-18T01:32:48.709Z,22.67
2022-10-18T01:35:28.240Z,22.65
2022-10-18T01:37:56.117Z,22.64
2022-10-18T01:40:23.888Z,22.63
2022-10-18T01:42:50.313Z,22.61
2022-10-18T01:45:17.238Z,22.61
2022-10-18T01:47:44.805Z,22.60
2022-10-18T01:50:11.217Z,22.59
2022-10-18T01:52:47.621Z,22.59
2022-10-18T01:55:14.393Z,22.59
2022-10-18T01:57:42.717Z,22.59
2022-10-18T02:00:11.877Z,22.60
2022-10-18T02:02:38.298Z,22.61
2022-10-18T02:05:13.831Z,22.62
2022-10-18T02:08:00.167Z,22.62
2022-10-18T02:11:00.346Z,22.61
2022-10-18T02:13:29.550Z,22.61
2022-10-18T02:15:59.434Z,22.60
2022-10-18T02:18:29.172Z,22.59
2022-10-18T02:20:56.466Z,22.56
2022-10-18T02:23:24.832Z,22.53
2022-10-18T02:25:52.026Z,22.48
2022-10-18T02:28:18.630Z,22.42
2022-10-18T02:31:05.287Z,22.37
2022-10-18T02:33:39.770Z,22.32
2022-10-18T02:36:22.240Z,22.28
2022-10-18T02:38:53.362Z,22.23
2022-10-18T02:41:26.378Z,22.22
2022-10-18T02:43:52.909Z,22.19
2022-10-18T02:46:19.807Z,22.19
2022-10-18T02:48:48.927Z,22.18
2022-10-18T02:51:15.780Z,22.20
2022-10-18T02:53:42.503Z,22.21
2022-10-18T02:56:09.150Z,22.21
2022-10-18T02:58:35.531Z,22.24
2022-10-18T03:01:02.007Z,22.24
2022-10-18T03:03:28.401Z,22.27
2022-10-18T03:05:54.760Z,22.27
2022-10-18T03:08:22.784Z,22.27
2022-10-18T03:10:49.247Z,22.27
2022-10-18T03:13:15.672Z,22.28
2022-10-18T03:15:42.404Z,22.29
2022-10-18T03:18:08.935Z,22.28
2022-10-18T03:20:35.507Z,22.27
2022-10-18T03:23:01.932Z,22.27
2022-10-18T03:25:28.331Z,22.25
2022-10-18T03:27:54.688Z,22.23
2022-10-18T03:30:21.115Z,22.23
2022-10-18T03:32:47.475Z,22.21
2022-10-18T03:35:13.911Z,22.20
2022-10-18T03:37:40.336Z,22.20
2022-10-18T03:40:07.156Z,22.20
2022-10-18T03:42:33.782Z,22.19
2022-10-18T03:45:00.484Z,22.19
2022-10-18T03:47:26.877Z,22.19
2022-10-18T03:49:56.294Z,22.19
2022-10-18T03:52:23.801Z,22.20
2022-10-18T03:54:50.164Z,22.21
2022-10-18T03:57:16.768Z,22.21
2022-10-18T03:59:43.509Z,22.20
2022-10-18T04:02:09.920Z,22.21
2022-10-18T04:04:36.328Z,22.20
2022-10-18T04:07:02.784Z,22.22
2022-10-18T04:09:29.192Z,22.22
2022-10-18T04:11:55.576Z,22.21
2022-10-18T04:14:22.147Z,22.18
2022-10-18T04:16:48.734Z,22.14
2022-10-18T04:19:15.197Z,22.13
2022-10-18T04:21:41.581Z,22.11
2022-10-18T04:24:07.994Z,22.11
2022-10-18T04:26:34.405Z,22.10
2022-10-18T04:29:00.865Z,22.11
2022-10-18T04:31:29.709Z,22.13
2022-10-18T04:33:56.078Z,22.15
2022-10-18T04:36:22.481Z,22.20
2022-10-18T04:38:48.834Z,22.23
2022-10-18T04:41:15.195Z,22.28
2022-10-18T04:43:41.679Z,22.31
2022-10-18T04:46:08.177Z,22.36
2022-10-18T04:48:34.534Z,22.40
2022-10-18T04:51:01.018Z,22.45
2022-10-18T04:53:27.413Z,22.46
2022-10-18T04:58:29.494Z,22.49
2022-10-18T05:00:56.007Z,22.52
2022-10-18T05:03:22.437Z,22.52
2022-10-18T05:06:04.428Z,22.55
2022-10-18T05:08:35.061Z,22.57
2022-10-18T05:11:02.035Z,22.59
2022-10-18T05:13:28.899Z,22.61
2022-10-18T05:15:55.634Z,22.62
2022-10-18T05:18:22.058Z,22.63
2022-10-18T05:20:48.487Z,22.61
2022-10-18T05:23:14.906Z,22.57
2022-10-18T05:25:41.992Z,22.53
2022-10-18T05:28:15.585Z,22.48
2022-10-18T05:30:47.637Z,22.43
2022-10-18T05:33:14.066Z,22.36
2022-10-18T05:35:40.451Z,22.28
2022-10-18T05:38:07.030Z,22.22
2022-10-18T05:40:34.059Z,22.13
2022-10-18T05:43:00.506Z,22.06
2022-10-18T05:45:26.924Z,21.98
2022-10-18T05:47:54.231Z,21.90
2022-10-18T05:50:20.699Z,21.84
2022-10-18T05:52:47.171Z,21.78
2022-10-18T05:55:13.651Z,21.72
2022-10-18T05:57:43.011Z,21.67
2022-10-18T06:00:09.856Z,21.62
2022-10-18T06:02:36.465Z,21.57
2022-10-18T06:05:03.032Z,21.54
2022-10-18T06:07:29.681Z,21.51
2022-10-18T06:09:56.308Z,21.47
2022-10-18T06:12:22.744Z,21.43
2022-10-18T06:14:49.559Z,21.40
2022-10-18T06:17:16.007Z,21.38
2022-10-18T06:19:45.079Z,21.35
2022-10-18T06:22:12.364Z,21.34
2022-10-18T06:24:39.080Z,21.29
2022-10-18T06:27:09.548Z,21.27
2022-10-18T06:29:36.755Z,21.26
2022-10-18T06:32:06.150Z,21.24
2022-10-18T06:34:34.553Z,21.21
2022-10-18T06:37:01.135Z,21.18
2022-10-18T06:39:27.624Z,21.17
2022-10-18T06:41:57.093Z,21.14
2022-10-18T06:44:23.643Z,21.12
2022-10-18T06:46:50.240Z,21.09
2022-10-18T06:49:19.148Z,21.09
2022-10-18T06:51:46.322Z,21.07
2022-10-18T06:54:17.961Z,21.05
2022-10-18T06:56:45.139Z,21.04
2022-10-18T06:59:11.556Z,21.02
2022-10-18T07:01:38.156Z,21.03
2022-10-18T07:04:04.760Z,21.00
2022-10-18T07:06:31.263Z,20.99
2022-10-18T07:08:57.691Z,20.97
2022-10-18T07:11:25.400Z,20.97
2022-10-18T07:13:54.103Z,20.96
2022-10-18T07:16:20.779Z,20.96
2022-10-18T07:18:49.405Z,20.93
2022-10-18T07:21:16.888Z,20.91
2022-10-18T07:23:44.188Z,20.89
2022-10-18T07:26:14.848Z,20.87
2022-10-18T07:28:41.538Z,20.84
2022-10-18T07:31:08.904Z,20.83
2022-10-18T07:33:37.899Z,20.80
2022-10-18T07:36:05.857Z,20.79
2022-10-18T07:38:32.638Z,20.78
2022-10-18T07:41:00.067Z,20.76
2022-10-18T07:43:26.681Z,20.77
2022-10-18T07:45:57.445Z,20.74
2022-10-18T07:48:24.157Z,20.74
2022-10-18T07:50:50.521Z,20.75
2022-10-18T07:53:16.962Z,20.75
2022-10-18T07:55:44.754Z,20.75
2022-10-18T07:58:11.683Z,20.75
2022-10-18T08:00:38.820Z,20.76
2022-10-18T08:03:05.385Z,20.76
2022-10-18T08:07:59.865Z,20.78
2022-10-18T08:10:27.492Z,20.77
2022-10-18T08:12:54.024Z,20.77
2022-10-18T08:15:23.973Z,20.77
2022-10-18T08:17:50.662Z,20.77
2022-10-18T08:20:29.954Z,20.76
2022-10-18T08:23:00.069Z,20.74
2022-10-18T08:25:27.032Z,20.74
2022-10-18T08:27:53.650Z,20.73
2022-10-18T08:30:20.126Z,20.72
2022-10-18T08:32:46.590Z,20.71
2022-10-18T08:35:13.090Z,20.71
2022-10-18T08:37:40.325Z,20.71
2022-10-18T08:40:07.050Z,20.72
2022-10-18T08:42:52.866Z,20.73
2022-10-18T08:45:30.526Z,20.72
2022-10-18T08:48:06.595Z,20.75
2022-10-18T08:50:35.586Z,20.76
2022-10-18T08:53:05.013Z,20.77
2022-10-18T08:55:37.461Z,20.78
2022-10-18T08:58:13.190Z,20.81
2022-10-18T09:00:44.342Z,20.83
2022-10-18T09:03:19.846Z,20.85
2022-10-18T09:05:51.839Z,20.86
2022-10-18T09:08:27.139Z,20.88
2022-10-18T09:11:02.951Z,20.91
2022-10-18T09:13:46.654Z,20.93
2022-10-18T09:16:20.646Z,20.95
2022-10-18T09:18:57.416Z,20.97
2022-10-18T09:21:27.063Z,20.99
2022-10-18T09:23:56.175Z,21.02
2022-10-18T09:26:26.259Z,21.02
2022-10-18T09:29:13.784Z,21.04
2022-10-18T09:31:49.066Z,21.06
2022-10-18T09:34:27.671Z,21.08
2022-10-18T09:36:54.468Z,21.10
2022-10-18T09:39:32.163Z,21.11
2022-10-18T09:42:13.291Z,21.14
2022-10-18T09:44:42.023Z,21.16
2022-10-18T09:47:16.868Z,21.19
2022-10-18T09:49:48.460Z,21.21
2022-10-18T09:52:26.788Z,21.24
2022-10-18T09:54:55.525Z,21.28
2022-10-18T09:57:25.646Z,21.29
2022-10-18T09:59:52.098Z,21.32
2022-10-18T10:02:19.648Z,21.34
2022-10-18T10:04:46.148Z,21.37
2022-10-18T10:07:13.892Z,21.40
2022-10-18T10:09:44.259Z,21.40
2022-10-18T10:12:31.164Z,21.41
2022-10-18T10:15:31.257Z,21.42
2022-10-18T10:18:06.937Z,21.41
2022-10-18T10:20:45.029Z,21.41
2022-10-18T10:23:14.642Z,21.40
2022-10-18T10:25:41.187Z,21.39
2022-10-18T10:28:14.920Z,21.40
2022-10-18T10:30:41.377Z,21.40
2022-10-18T10:33:27.758Z,21.39
2022-10-18T10:35:58.586Z,21.39
2022-10-18T10:38:26.743Z,21.39
2022-10-18T10:40:53.322Z,21.41
2022-10-18T10:43:39.956Z,21.41
2022-10-18T10:46:07.029Z,21.41
2022-10-18T10:48:34.782Z,21.43
2022-10-18T10:51:03.272Z,21.44
2022-10-18T10:53:32.527Z,21.47
2022-10-18T10:55:59.583Z,21.49
2022-10-18T10:58:28.067Z,21.53
2022-10-18T11:00:55.983Z,21.56
2022-10-18T11:03:30.984Z,21.59
2022-10-18T11:06:00.533Z,21.62
2022-10-18T11:11:28.645Z,21.67
2022-10-18T11:14:07.287Z,21.68
2022-10-18T11:17:05.626Z,21.70
2022-10-18T11:19:39.178Z,21.71
2022-10-18T11:22:09.595Z,21.71
2022-10-18T11:24:36.115Z,21.71
2022-10-18T11:27:02.468Z,21.71
2022-10-18T11:29:47.696Z,21.71
2022-10-18T11:32:21.188Z,21.72
2022-10-18T11:34:47.557Z,21.72
2022-10-18T11:37:28.513Z,21.72
2022-10-18T11:40:02.033Z,21.73
2022-10-18T11:42:42.048Z,21.74
2022-10-18T11:45:11.306Z,21.76
2022-10-18T11:47:37.712Z,21.80
2022-10-18T11:50:08.062Z,21.81
2022-10-18T11:52:40.492Z,21.86
2022-10-18T11:55:30.374Z,21.89
2022-10-18T11:58:07.914Z,21.95
2022-10-18T12:00:39.696Z,22.00
2022-10-18T12:03:20.152Z,22.05
2022-10-18T12:05:47.992Z,22.13
2022-10-18T12:08:17.292Z,22.19
2022-10-18T12:11:03.883Z,22.31
2022-10-18T12:13:39.086Z,22.46
2022-10-18T12:16:07.043Z,22.57
2022-10-18T12:18:34.032Z,22.70
2022-10-18T12:21:00.984Z,22.83
2022-10-18T12:23:37.433Z,22.95
2022-10-18T12:26:05.857Z,23.11
2022-10-18T12:28:41.538Z,23.24
2022-10-18T12:31:26.820Z,23.39
2022-10-18T12:34:02.025Z,23.54
2022-10-18T12:36:48.513Z,23.67
2022-10-18T12:39:32.274Z,23.82
2022-10-18T12:42:18.250Z,23.94
2022-10-18T12:44:46.469Z,24.06
2022-10-18T12:47:21.741Z,24.14
2022-10-18T12:49:55.381Z,24.22
2022-10-18T12:52:26.113Z,24.30
2022-10-18T12:55:01.821Z,24.38
2022-10-18T12:57:47.234Z,24.45
2022-10-18T13:00:32.225Z,24.50
2022-10-18T13:03:13.751Z,24.55
2022-10-18T13:05:53.807Z,24.61
2022-10-18T13:08:26.695Z,24.68
2022-10-18T13:11:01.979Z,24.73
2022-10-18T13:13:45.243Z,24.78
2022-10-18T13:16:20.735Z,24.85
2022-10-18T13:18:58.526Z,24.92
2022-10-18T13:21:25.059Z,25.01
2022-10-18T13:24:03.699Z,25.07
2022-10-18T13:26:38.696Z,25.15
2022-10-18T13:29:25.042Z,25.22
2022-10-18T13:32:11.708Z,25.32
2022-10-18T13:34:39.166Z,25.40
2022-10-18T13:37:11.486Z,25.48
2022-10-18T13:39:39.270Z,25.55
2022-10-18T13:42:15.019Z,25.62
2022-10-18T13:44:43.514Z,25.65
2022-10-18T13:47:14.403Z,25.67
2022-10-18T13:49:43.578Z,25.67
2022-10-18T13:52:33.412Z,25.67
2022-10-18T13:55:18.319Z,25.66
2022-10-18T13:57:47.570Z,25.65
2022-10-18T14:00:16.663Z,25.66
2022-10-18T14:03:03.219Z,25.64
2022-10-18T14:05:29.825Z,25.67
2022-10-18T14:08:09.603Z,25.67
2022-10-18T14:11:01.781Z,25.66
2022-10-18T14:13:43.238Z,25.63
2022-10-18T14:16:18.734Z,25.56
2022-10-18T14:18:47.420Z,25.51
2022-10-18T14:21:21.864Z,25.42
2022-10-18T14:23:48.786Z,25.40
2022-10-18T14:26:16.157Z,25.36
2022-10-18T14:28:59.157Z,25.34
2022-10-18T14:31:26.830Z,25.35
2022-10-18T14:33:57.690Z,25.36
2022-10-18T14:36:25.936Z,25.39
2022-10-18T14:39:02.802Z,25.44
2022-10-18T14:41:29.138Z,25.47
2022-10-18T14:44:14.029Z,25.52
2022-10-18T14:46:46.678Z,25.59
2022-10-18T14:49:13.867Z,25.66
2022-10-18T14:51:41.335Z,25.70
2022-10-18T14:57:00.715Z,25.76
2022-10-18T14:59:28.114Z,25.78
2022-10-18T15:01:59.783Z,25.80
2022-10-18T15:04:33.391Z,25.82
2022-10-18T15:07:01.311Z,25.83
2022-10-18T15:11:57.777Z,25.86
2022-10-18T15:14:26.519Z,25.85
2022-10-18T15:16:56.199Z,25.84
2022-10-18T15:19:31.178Z,25.81
2022-10-18T15:22:30.789Z,25.78
2022-10-18T15:25:03.177Z,25.72
2022-10-18T15:27:32.007Z,25.68
2022-10-18T15:30:05.846Z,25.62
2022-10-18T15:32:32.508Z,25.56
2022-10-18T15:35:09.822Z,25.50
2022-10-18T15:37:41.679Z,25.43
2022-10-18T15:40:23.022Z,25.34
2022-10-18T15:42:50.269Z,25.21
2022-10-18T15:45:25.564Z,25.09
2022-10-18T15:48:02.403Z,24.96
2022-10-18T15:50:47.753Z,24.82
2022-10-18T15:53:20.235Z,24.69
2022-10-18T15:55:48.336Z,24.59
2022-10-18T15:58:17.928Z,24.48
2022-10-18T16:00:45.027Z,24.38
2022-10-18T16:03:11.691Z,24.28
2022-10-18T16:05:38.475Z,24.18
2022-10-18T16:08:04.932Z,24.08
2022-10-18T16:10:31.323Z,23.96
2022-10-18T16:12:57.749Z,23.86
2022-10-18T16:15:24.283Z,23.76
2022-10-18T16:17:50.878Z,23.64
2022-10-18T16:20:23.690Z,23.55
2022-10-18T17:00:47.230Z,21.95
2022-10-18T17:03:14.229Z,21.87
2022-10-18T17:05:41.268Z,21.82
2022-10-18T17:08:07.989Z,21.78
2022-10-18T17:10:34.496Z,21.76
2022-10-18T17:13:01.041Z,21.75
2022-10-18T17:15:31.485Z,21.75
2022-10-18T17:18:01.354Z,21.73
2022-10-18T17:20:27.813Z,21.73
2022-10-18T17:22:54.333Z,21.73
2022-10-18T17:25:20.881Z,21.72
2022-10-18T17:27:47.601Z,21.72
2022-10-18T17:30:15.171Z,21.68
2022-10-18T17:32:44.698Z,21.69
2022-10-18T17:35:12.289Z,21.68
2022-10-18T17:37:43.982Z,21.66
2022-10-18T17:40:12.477Z,21.64
2022-10-18T17:42:38.968Z,21.62
2022-10-18T17:45:05.773Z,21.60
2022-10-18T17:47:32.653Z,21.57
2022-10-18T17:49:59.268Z,21.55
2022-10-18T17:52:25.767Z,21.53
2022-10-18T17:54:52.321Z,21.51
2022-10-18T17:57:18.924Z,21.48
2022-10-18T17:59:46.821Z,21.45
2022-10-18T18:02:13.309Z,21.41
2022-10-18T18:04:39.874Z,21.36
2022-10-18T18:07:06.397Z,21.32
2022-10-18T18:09:32.785Z,21.26
2022-10-18T18:11:59.428Z,21.22
2022-10-18T18:14:25.965Z,21.15
2022-10-18T18:16:52.445Z,21.11
2022-10-18T18:19:23.967Z,21.10
2022-10-18T18:21:53.694Z,21.06
2022-10-18T18:24:24.783Z,21.02
2022-10-18T18:26:52.766Z,20.98
2022-10-18T18:29:20.069Z,20.93
2022-10-18T18:31:46.536Z,20.87
2022-10-18T18:34:13.526Z,20.82
2022-10-18T18:36:40.446Z,20.78
2022-10-18T18:39:07.504Z,20.74
2022-10-18T18:41:34.047Z,20.69
2022-10-18T18:44:05.421Z,20.63
2022-10-18T18:46:38.494Z,20.57
2022-10-18T18:49:06.217Z,20.54
2022-10-18T18:51:33.435Z,20.51
2022-10-18T18:54:00.107Z,20.51
2022-10-18T18:56:27.212Z,20.51
2022-10-18T18:58:53.948Z,20.49
2022-10-18T19:01:20.475Z,20.47
2022-10-18T19:03:48.565Z,20.44
2022-10-18T19:06:19.644Z,20.40
2022-10-18T19:08:46.949Z,20.34
2022-10-18T19:11:15.055Z,20.28
2022-10-18T19:13:41.573Z,20.20
2022-10-18T19:16:19.061Z,20.13
2022-10-18T19:18:54.809Z,20.05
2022-10-18T19:21:22.057Z,19.99
2022-10-18T19:23:48.503Z,19.94
2022-10-18T19:26:23.830Z,19.91
2022-10-18T19:28:50.350Z,19.89
2022-10-18T19:31:16.777Z,19.88
2022-10-18T19:33:48.572Z,19.88
2022-10-18T19:36:25.205Z,19.88
2022-10-18T19:38:51.719Z,19.88
2022-10-18T19:41:18.199Z,19.88
2022-10-18T19:43:44.735Z,19.87
2022-10-18T19:46:11.580Z,19.85
2022-10-18T19:48:38.082Z,19.81
2022-10-18T19:51:06.994Z,19.76
2022-10-18T19:53:35.467Z,19.73
2022-10-18T19:56:03.183Z,19.66
2022-10-18T19:58:29.650Z,19.62
2022-10-18T20:00:57.209Z,19.59
2022-10-18T20:03:24.271Z,19.55
2022-10-18T20:05:55.479Z,19.52
2022-10-18T20:08:22.387Z,19.48
2022-10-18T20:10:49.015Z,19.46
2022-10-18T20:13:15.447Z,19.41
2022-10-18T20:15:41.919Z,19.38
2022-10-18T20:18:08.425Z,19.32
2022-10-18T20:20:36.991Z,19.26
2022-10-18T20:23:03.799Z,19.22
2022-10-18T20:25:30.555Z,19.17
2022-10-18T20:27:57.027Z,19.12
2022-10-18T20:30:23.431Z,19.09
2022-10-18T20:32:51.564Z,19.07
2022-10-18T20:35:19.054Z,19.06
2022-10-18T20:37:45.477Z,19.04
2022-10-18T20:40:12.143Z,19.02
2022-10-18T20:42:38.678Z,18.99
2022-10-18T20:45:07.383Z,18.97
2022-10-18T20:47:34.939Z,18.95
2022-10-18T20:50:01.623Z,18.94
2022-10-18T20:52:28.104Z,18.93
2022-10-18T20:54:54.600Z,18.93
2022-10-18T20:57:20.975Z,18.89
2022-10-18T20:59:48.646Z,18.86
2022-10-18T21:02:15.201Z,18.84
2022-10-18T21:04:42.457Z,18.79
2022-10-18T21:07:09.072Z,18.76
2022-10-18T21:09:35.483Z,18.73
2022-10-18T21:12:01.908Z,18.70
2022-10-18T21:14:28.394Z,18.68
2022-10-18T21:16:54.839Z,18.65
2022-10-18T21:19:22.531Z,18.61
2022-10-18T21:21:50.525Z,18.56
2022-10-18T21:24:17.975Z,18.54
2022-10-18T21:26:45.054Z,18.49
2022-10-18T21:29:12.203Z,18.47
2022-10-18T21:31:40.100Z,18.45
2022-10-18T21:34:08.089Z,18.44
2022-10-18T21:36:36.065Z,18.41
2022-10-18T21:39:03.245Z,18.39
2022-10-18T21:41:30.639Z,18.36
2022-10-18T21:43:57.109Z,18.35
2022-10-18T21:46:24.732Z,18.31
2022-10-18T21:48:51.673Z,18.27
2022-10-18T21:51:19.456Z,18.25
2022-10-18T21:53:47.772Z,18.23
2022-10-18T21:56:15.609Z,18.22
2022-10-18T21:58:42.510Z,18.20
2022-10-18T22:01:10.064Z,18.17
2022-10-18T22:03:36.936Z,18.16
2022-10-18T22:06:07.605Z,18.14
2022-10-18T22:08:34.294Z,18.11
2022-10-18T22:11:01.269Z,18.08
2022-10-18T22:13:28.649Z,18.06
2022-10-18T22:15:55.186Z,18.04
2022-10-18T22:18:21.654Z,18.02
2022-10-18T22:20:54.948Z,18.00
2022-10-18T22:23:21.416Z,18.00
2022-10-18T22:25:48.089Z,17.97
2022-10-18T22:28:14.515Z,17.96
2022-10-18T22:30:41.122Z,17.95
2022-10-18T22:33:07.509Z,17.95
2022-10-18T22:35:33.921Z,17.94
2022-10-18T22:38:00.313Z,17.94
2022-10-18T22:40:26.674Z,17.94
2022-10-18T22:42:53.078Z,17.94
2022-10-18T22:45:19.610Z,17.95
2022-10-18T22:47:46.071Z,17.96
2022-10-18T22:50:12.453Z,17.95
2022-10-18T22:52:38.851Z,17.96
2022-10-18T22:55:05.406Z,17.94
2022-10-18T22:57:31.789Z,17.93
2022-10-18T22:59:58.199Z,17.92
2022-10-18T23:02:24.575Z,17.92
2022-10-18T23:04:50.983Z,17.90
2022-10-18T23:07:17.367Z,17.89
2022-10-18T23:09:43.804Z,17.90
2022-10-18T23:12:10.209Z,17.89
2022-10-18T23:14:36.611Z,17.90
2022-10-18T23:17:03.050Z,17.90
2022-10-18T23:19:29.472Z,17.91
2022-10-18T23:21:55.883Z,17.93
2022-10-18T23:24:22.279Z,17.94
2022-10-18T23:26:48.726Z,17.94
2022-10-18T23:29:15.182Z,17.98
2022-10-18T23:31:41.704Z,17.98
2022-10-18T23:34:08.116Z,18.02
2022-10-18T23:36:34.693Z,18.02
2022-10-18T23:39:01.434Z,18.00
2022-10-18T23:41:27.916Z,17.97
2022-10-18T23:43:54.467Z,17.95
2022-10-18T23:46:21.106Z,17.93
2022-10-18T23:48:47.792Z,17.90
2022-10-18T23:51:14.844Z,17.90
2022-10-18T23:53:41.275Z,17.87
2022-10-18T23:56:12.357Z,17.85
2022-10-18T23:58:39.169Z,17.82
